Time;durP1;ratioP1;P1;durP2;ratioP2;P2;SDS_P1;SDS_P2;PMS_P1;PMS_P2;Temp;Humidity;BMP_temperature;BMP_pressure;BME280_temperature;BME280_humidity;BME280_pressure;Samples;Min_cycle;Max_cycle;Signal;HPM_P1;HPM_P2
2022/07/30 00:03:23;;;;;;;4.60;2.70;;;21.20;81.20;;;;;;10558079;28;20057;-68
2022/07/30 00:08:24;;;;;;;4.53;2.80;;;21.10;81.20;;;;;;10550946;28;20020;-69
2022/07/30 00:13:25;;;;;;;4.95;2.80;;;21.10;81.30;;;;;;10545232;28;20032;-67
2022/07/30 00:18:26;;;;;;;3.08;2.60;;;21.10;81.40;;;;;;10567465;28;20048;-68
2022/07/30 00:23:27;;;;;;;4.78;2.70;;;21.00;81.40;;;;;;10535346;28;20402;-69
2022/07/30 00:28:27;;;;;;;4.38;2.60;;;21.00;81.50;;;;;;10552758;28;20057;-68
2022/07/30 00:33:28;;;;;;;4.65;2.50;;;21.00;81.50;;;;;;10563422;28;20036;-67
2022/07/30 00:38:29;;;;;;;3.38;2.58;;;21.00;81.60;;;;;;10557235;28;21018;-68
2022/07/30 00:43:29;;;;;;;4.45;2.75;;;20.90;81.60;;;;;;10565516;28;20028;-67
2022/07/30 00:48:30;;;;;;;3.45;2.75;;;20.90;81.70;;;;;;10566705;28;20028;-68
2022/07/30 00:53:31;;;;;;;5.22;3.17;;;20.90;81.70;;;;;;10555895;28;20024;-68
2022/07/30 00:58:32;;;;;;;4.68;2.80;;;20.80;81.70;;;;;;10567655;28;20397;-62
2022/07/30 01:03:32;;;;;;;3.17;2.75;;;20.80;81.80;;;;;;10565933;28;20019;-68
2022/07/30 01:08:33;;;;;;;3.80;2.63;;;20.80;81.90;;;;;;10568214;28;20027;-67
2022/07/30 01:13:34;;;;;;;3.08;2.58;;;20.80;81.90;;;;;;10556363;28;20698;-65
2022/07/30 01:24:05;;;;;;;5.40;2.72;;;20.70;81.90;;;;;;10565989;28;20051;-68
2022/07/30 01:29:08;;;;;;;3.50;2.70;;;20.70;82.10;;;;;;10552249;28;20020;-69
2022/07/30 01:34:11;;;;;;;3.55;2.80;;;20.70;82.10;;;;;;10562085;28;20039;-69
2022/07/30 01:39:16;;;;;;;4.53;2.78;;;20.60;82.10;;;;;;10566923;28;20488;-67
2022/07/30 01:44:18;;;;;;;3.67;2.67;;;20.60;82.20;;;;;;10562651;28;20020;-69
2022/07/30 01:49:19;;;;;;;4.05;2.90;;;20.60;82.20;;;;;;10561475;28;20600;-69
2022/07/30 01:54:22;;;;;;;5.38;3.08;;;20.60;82.30;;;;;;10555392;28;20452;-68
2022/07/30 01:59:25;;;;;;;4.40;2.67;;;20.50;82.90;;;;;;10561267;28;20039;-68
2022/07/30 02:04:26;;;;;;;3.83;2.50;;;20.50;82.90;;;;;;10544322;28;20069;-69
2022/07/30 02:09:40;;;;;;;6.75;3.10;;;20.50;82.40;;;;;;10567204;28;20111;-67
2022/07/30 02:14:49;;;;;;;5.20;2.97;;;20.50;82.50;;;;;;10555658;28;20073;-67
2022/07/30 02:19:54;;;;;;;4.82;3.03;;;20.50;82.60;;;;;;10558675;28;20532;-63
2022/07/30 02:24:56;;;;;;;5.18;2.92;;;20.50;82.60;;;;;;10556621;28;20050;-67
2022/07/30 02:30:00;;;;;;;4.10;2.60;;;20.40;82.60;;;;;;10559188;28;20055;-68
2022/07/30 02:35:09;;;;;;;3.88;2.58;;;20.40;82.70;;;;;;10562063;28;20039;-68
2022/07/30 02:40:14;;;;;;;3.33;2.50;;;20.40;82.80;;;;;;10553473;28;20015;-67
2022/07/30 02:45:17;;;;;;;4.63;2.40;;;20.40;82.90;;;;;;10552781;28;20114;-66
2022/07/30 02:50:18;;;;;;;3.55;2.67;;;20.40;82.90;;;;;;10562829;28;20016;-66
2022/07/30 02:55:20;;;;;;;4.63;2.95;;;20.40;83.00;;;;;;10568591;28;20059;-68
2022/07/30 03:00:23;;;;;;;3.50;2.50;;;20.40;83.00;;;;;;10563505;28;20543;-68
2022/07/30 03:05:25;;;;;;;3.25;2.70;;;20.30;83.00;;;;;;10555187;28;20028;-66
2022/07/30 03:10:27;;;;;;;3.65;2.70;;;20.30;83.10;;;;;;10550135;28;20063;-64
2022/07/30 03:15:29;;;;;;;2.92;2.50;;;20.30;83.10;;;;;;10557432;28;20078;-66
2022/07/30 03:20:31;;;;;;;3.50;2.40;;;20.30;83.10;;;;;;10556800;28;20051;-65
2022/07/30 03:25:34;;;;;;;2.97;2.38;;;20.30;83.20;;;;;;10559206;28;20562;-61
2022/07/30 03:30:35;;;;;;;3.75;2.45;;;20.20;83.20;;;;;;10550359;28;20034;-69
2022/07/30 03:35:37;;;;;;;3.35;2.20;;;20.20;83.30;;;;;;10544108;28;20027;-68
2022/07/30 03:40:39;;;;;;;2.50;1.90;;;20.20;83.30;;;;;;10561576;28;20031;-69
2022/07/30 03:45:43;;;;;;;5.18;2.30;;;20.20;83.40;;;;;;10552472;28;20023;-69
2022/07/30 03:50:45;;;;;;;4.60;2.33;;;20.20;83.40;;;;;;10561011;28;20032;-68
2022/07/30 03:55:46;;;;;;;4.60;2.38;;;20.20;83.40;;;;;;10560530;28;20024;-67
2022/07/30 04:00:48;;;;;;;2.80;2.13;;;20.20;83.50;;;;;;10564302;28;20015;-65
2022/07/30 04:05:49;;;;;;;3.00;2.15;;;20.10;83.50;;;;;;10559273;28;20024;-65
2022/07/30 04:10:50;;;;;;;2.53;2.00;;;20.10;83.50;;;;;;10540050;28;20024;-68
2022/07/30 04:16:00;;;;;;;2.75;2.13;;;20.10;84.10;;;;;;10535040;28;20313;-61
2022/07/30 04:21:04;;;;;;;2.65;2.03;;;20.10;83.70;;;;;;10454215;28;20059;-65
2022/07/30 04:26:06;;;;;;;3.78;2.00;;;20.00;83.50;;;;;;10458161;28;20491;-61
2022/07/30 04:31:07;;;;;;;2.38;2.00;;;20.00;83.80;;;;;;10461891;28;20356;-64
2022/07/30 04:36:08;;;;;;;3.30;2.00;;;20.00;83.70;;;;;;10459412;28;20410;-64
2022/07/30 04:41:08;;;;;;;3.50;2.03;;;20.00;83.70;;;;;;10447963;28;20045;-63
2022/07/30 04:46:09;;;;;;;5.45;1.80;;;20.00;83.80;;;;;;10470240;28;20123;-62
2022/07/30 04:51:22;;;;;;;2.28;1.65;;;19.90;83.80;;;;;;10463447;28;20084;-63
2022/07/30 04:56:24;;;;;;;3.28;2.30;;;19.90;84.10;;;;;;10471770;28;20045;-61
2022/07/30 05:01:32;;;;;;;4.68;1.92;;;19.90;84.00;;;;;;10460926;28;20542;-61
2022/07/30 05:06:33;;;;;;;4.23;2.30;;;19.90;84.20;;;;;;10456232;28;20702;-63
2022/07/30 05:11:34;;;;;;;2.75;2.00;;;19.90;84.20;;;;;;10460363;28;20594;-61
2022/07/30 05:16:35;;;;;;;3.45;1.98;;;19.90;84.30;;;;;;10450172;28;20046;-62
2022/07/30 05:21:36;;;;;;;3.58;2.00;;;19.90;85.00;;;;;;10467429;28;20584;-63
2022/07/30 05:26:37;;;;;;;4.28;2.13;;;19.90;84.50;;;;;;10465256;28;20075;-63
2022/07/30 05:31:37;;;;;;;3.72;2.15;;;19.90;84.50;;;;;;10454551;28;20386;-61
2022/07/30 05:36:38;;;;;;;3.15;2.00;;;19.90;84.60;;;;;;10454721;28;20625;-63
2022/07/30 05:41:39;;;;;;;3.58;2.00;;;19.90;84.70;;;;;;10454347;28;20024;-61
2022/07/30 05:46:40;;;;;;;3.83;2.10;;;19.90;84.80;;;;;;10453786;28;20263;-63
2022/07/30 05:51:41;;;;;;;4.40;2.22;;;19.90;84.80;;;;;;10446878;28;20390;-63
2022/07/30 05:56:42;;;;;;;3.53;2.20;;;19.90;85.00;;;;;;10470164;28;20024;-61
2022/07/30 06:01:43;;;;;;;5.03;2.33;;;19.90;85.00;;;;;;10457239;28;20136;-61
2022/07/30 06:06:43;;;;;;;4.47;2.00;;;19.90;85.10;;;;;;10468565;28;20034;-61
2022/07/30 06:11:44;;;;;;;4.45;2.20;;;19.90;85.20;;;;;;10469662;28;20039;-61
2022/07/30 06:16:45;;;;;;;3.30;2.30;;;19.90;85.20;;;;;;10457532;28;20531;-62
2022/07/30 06:21:45;;;;;;;4.40;2.15;;;19.90;85.30;;;;;;10460936;28;20043;-65
2022/07/30 06:26:46;;;;;;;2.42;2.20;;;19.90;85.40;;;;;;10452435;28;20027;-61
2022/07/30 06:31:47;;;;;;;3.67;2.50;;;20.00;85.40;;;;;;10468628;28;20414;-67
2022/07/30 06:36:48;;;;;;;2.60;2.13;;;20.00;85.50;;;;;;10460146;28;20171;-65
2022/07/30 06:41:49;;;;;;;3.47;2.10;;;19.70;85.30;;;;;;10470158;28;20019;-68
2022/07/30 06:46:49;;;;;;;3.47;2.53;;;20.00;85.40;;;;;;10459236;28;20654;-65
2022/07/30 06:51:50;;;;;;;4.50;2.67;;;20.00;85.20;;;;;;10470253;28;20322;-61
2022/07/30 06:56:52;;;;;;;2.95;2.40;;;20.10;85.10;;;;;;10475713;28;20470;-67
2022/07/30 07:01:53;;;;;;;4.53;2.40;;;20.10;85.00;;;;;;10461920;28;20476;-62
2022/07/30 07:06:53;;;;;;;4.38;2.40;;;20.20;84.90;;;;;;10471034;28;20497;-66
2022/07/30 07:11:54;;;;;;;3.72;2.53;;;20.20;84.80;;;;;;10465073;28;20129;-64
2022/07/30 07:16:55;;;;;;;5.15;2.70;;;20.20;84.70;;;;;;10470823;28;20038;-63
2022/07/30 07:21:55;;;;;;;5.03;2.40;;;20.20;84.70;;;;;;10469693;28;20557;-63
2022/07/30 07:26:56;;;;;;;4.63;2.72;;;20.20;84.60;;;;;;10474770;28;20821;-63
2022/07/30 07:31:57;;;;;;;10.30;5.25;;;20.20;85.30;;;;;;10477407;28;20136;-66
2022/07/30 07:36:57;;;;;;;8.52;4.30;;;20.20;87.10;;;;;;10479566;28;20069;-65
2022/07/30 07:41:58;;;;;;;5.78;3.83;;;20.10;88.50;;;;;;10491226;28;20061;-68
2022/07/30 07:46:59;;;;;;;5.25;3.22;;;20.10;89.30;;;;;;10473256;28;20862;-66
2022/07/30 07:51:59;;;;;;;10.80;3.40;;;20.10;89.50;;;;;;10483907;28;20142;-64
2022/07/30 07:57:00;;;;;;;6.60;3.72;;;20.10;90.00;;;;;;10484004;28;20031;-65
2022/07/30 08:02:01;;;;;;;7.18;4.47;;;20.10;90.20;;;;;;10486559;28;20418;-66
2022/07/30 08:07:02;;;;;;;6.32;3.80;;;20.20;90.50;;;;;;10483206;28;20092;-66
2022/07/30 08:12:03;;;;;;;6.53;3.40;;;20.20;90.50;;;;;;10480272;28;20627;-65
2022/07/30 08:17:04;;;;;;;8.82;3.53;;;20.20;90.70;;;;;;10471909;28;20115;-65
2022/07/30 08:22:04;;;;;;;4.53;3.17;;;20.10;90.70;;;;;;10467340;28;20513;-66
2022/07/30 08:27:05;;;;;;;5.82;2.70;;;20.20;90.70;;;;;;10458134;28;20073;-64
2022/07/30 08:32:06;;;;;;;6.53;3.03;;;20.30;90.60;;;;;;10474490;28;20264;-64
2022/07/30 08:37:07;;;;;;;5.93;2.85;;;20.30;90.70;;;;;;10443648;28;20134;-64
2022/07/30 08:42:08;;;;;;;6.28;3.17;;;20.30;90.70;;;;;;10467381;28;20217;-64
2022/07/30 08:47:10;;;;;;;4.13;2.95;;;20.20;90.70;;;;;;10470833;28;20517;-65
2022/07/30 08:52:11;;;;;;;5.00;3.25;;;20.20;90.60;;;;;;10472315;28;20036;-64
2022/07/30 08:57:12;;;;;;;8.05;4.47;;;20.30;90.60;;;;;;10471925;28;20256;-64
2022/07/30 09:02:13;;;;;;;6.30;2.75;;;20.40;90.60;;;;;;10461297;28;20027;-63
2022/07/30 09:07:14;;;;;;;5.18;2.83;;;20.40;90.20;;;;;;10465773;28;20024;-64
2022/07/30 09:12:38;;;;;;;4.07;2.92;;;20.50;89.80;;;;;;10454796;28;20097;-65
2022/07/30 09:17:45;;;;;;;7.05;3.20;;;20.50;90.20;;;;;;10450006;28;20135;-64
2022/07/30 09:22:57;;;;;;;7.82;4.18;;;20.70;90.10;;;;;;10469955;28;20577;-65
2022/07/30 09:27:58;;;;;;;6.45;3.10;;;20.80;90.20;;;;;;10464990;28;20735;-65
2022/07/30 09:32:58;;;;;;;5.90;3.42;;;20.90;89.80;;;;;;10460338;28;20357;-64
2022/07/30 09:38:00;;;;;;;4.68;3.00;;;21.00;89.50;;;;;;11340689;22;20127;-64
2022/07/30 09:43:03;;;;;;;6.00;3.10;;;20.90;89.70;;;;;;10537460;27;20029;-66
2022/07/30 09:48:20;;;;;;;7.00;2.97;;;20.80;90.00;;;;;;10558809;27;20579;-65
2022/07/30 09:53:21;;;;;;;5.50;2.85;;;21.00;90.20;;;;;;10555117;27;20212;-65
2022/07/30 09:58:22;;;;;;;4.80;3.08;;;21.20;89.00;;;;;;10554235;27;20026;-65
2022/07/30 10:03:25;;;;;;;4.93;2.70;;;21.30;88.40;;;;;;10552311;27;20078;-65
2022/07/30 10:08:43;;;;;;;4.95;2.72;;;21.40;87.70;;;;;;10538787;27;20031;-64
2022/07/30 10:13:47;;;;;;;5.05;2.50;;;21.50;86.70;;;;;;10549341;27;20493;-65
2022/07/30 10:18:48;;;;;;;5.28;2.83;;;21.50;86.50;;;;;;10560388;27;20020;-65
2022/07/30 10:23:50;;;;;;;4.50;2.70;;;21.50;86.40;;;;;;10553937;27;20023;-65
2022/07/30 10:28:52;;;;;;;3.88;2.50;;;21.60;86.10;;;;;;10543887;27;20023;-64
2022/07/30 10:33:53;;;;;;;4.78;2.30;;;21.70;85.20;;;;;;10549650;27;20682;-65
2022/07/30 10:38:55;;;;;;;7.22;2.75;;;21.80;84.90;;;;;;10541774;27;20055;-65
2022/07/30 10:44:26;;;;;;;6.13;2.63;;;21.80;84.70;;;;;;10537623;27;20033;-64
2022/07/30 10:49:27;;;;;;;3.47;2.55;;;21.90;83.80;;;;;;10547862;27;20639;-65
2022/07/30 10:54:36;;;;;;;5.05;2.50;;;22.00;83.90;;;;;;10553678;27;20681;-64
2022/07/30 10:59:57;;;;;;;3.05;2.60;;;22.10;83.30;;;;;;10564338;27;20527;-64
2022/07/30 11:05:16;;;;;;;5.70;2.00;;;22.00;82.90;;;;;;10568539;27;20397;-64
2022/07/30 11:10:40;;;;;;;6.03;2.53;;;22.00;83.20;;;;;;10551585;27;20031;-65
2022/07/30 11:15:58;;;;;;;4.82;2.30;;;22.00;82.80;;;;;;10553643;27;20397;-66
2022/07/30 11:21:20;;;;;;;5.70;2.33;;;22.10;82.30;;;;;;10549084;27;20030;-66
2022/07/30 11:26:45;;;;;;;4.78;2.00;;;22.30;81.20;;;;;;10558899;27;20145;-65
2022/07/30 11:31:46;;;;;;;5.72;2.10;;;22.40;80.90;;;;;;10554568;27;20440;-65
2022/07/30 11:37:05;;;;;;;3.10;1.88;;;22.50;81.40;;;;;;10555317;27;20043;-64
2022/07/30 11:42:25;;;;;;;4.38;2.28;;;22.60;80.00;;;;;;10536824;27;20881;-64
2022/07/30 11:47:26;;;;;;;9.00;2.38;;;22.70;80.00;;;;;;10557902;27;20022;-72
2022/07/30 11:52:27;;;;;;;6.45;2.10;;;22.80;80.30;;;;;;10561549;27;20026;-65
2022/07/30 11:57:41;;;;;;;3.28;2.10;;;22.90;80.10;;;;;;10560384;27;20023;-66
2022/07/30 12:02:43;;;;;;;4.38;2.45;;;23.00;79.20;;;;;;10541228;27;20062;-68
2022/07/30 12:07:43;;;;;;;5.18;1.85;;;23.10;79.70;;;;;;10548231;27;20019;-62
2022/07/30 12:12:45;;;;;;;3.65;1.65;;;23.10;79.30;;;;;;10553792;27;20074;-65
2022/07/30 12:17:45;;;;;;;3.58;1.80;;;23.20;78.40;;;;;;10544698;27;20372;-64
2022/07/30 12:22:46;;;;;;;3.33;1.60;;;23.40;78.40;;;;;;10552763;27;20034;-64
2022/07/30 12:27:48;;;;;;;3.63;2.17;;;23.50;77.60;;;;;;10543612;27;20027;-65
2022/07/30 12:32:49;;;;;;;1.88;1.50;;;23.60;76.40;;;;;;10555941;27;20435;-66
2022/07/30 12:38:03;;;;;;;3.25;1.40;;;23.60;75.70;;;;;;10542005;27;20074;-66
2022/07/30 12:43:04;;;;;;;3.35;1.30;;;23.60;72.20;;;;;;10550092;27;20035;-65
2022/07/30 12:48:10;;;;;;;3.28;1.73;;;23.70;71.50;;;;;;10562016;27;20445;-68
2022/07/30 12:53:10;;;;;;;3.08;1.20;;;23.60;70.70;;;;;;10525302;27;20039;-65
2022/07/30 12:58:11;;;;;;;2.40;1.33;;;23.50;71.50;;;;;;10553521;27;20576;-68
2022/07/30 13:03:26;;;;;;;3.60;1.30;;;23.40;70.60;;;;;;10543979;27;20076;-66
2022/07/30 13:08:47;;;;;;;5.38;2.78;;;23.40;71.20;;;;;;10526308;27;20426;-66
2022/07/30 13:13:49;;;;;;;2.05;1.20;;;23.50;71.60;;;;;;10542584;27;20441;-66
2022/07/30 13:18:49;;;;;;;2.67;1.40;;;23.70;72.60;;;;;;10549640;27;20050;-66
2022/07/30 13:23:50;;;;;;;2.25;1.45;;;23.90;72.40;;;;;;10539107;27;20038;-66
2022/07/30 13:28:51;;;;;;;2.13;1.48;;;24.10;72.40;;;;;;10533795;27;20513;-65
2022/07/30 13:33:52;;;;;;;1.90;1.40;;;24.10;72.50;;;;;;10548560;27;20449;-68
2022/07/30 13:38:53;;;;;;;3.90;1.50;;;24.20;72.70;;;;;;10542285;27;20507;-65
2022/07/30 13:43:54;;;;;;;2.08;1.45;;;24.20;72.30;;;;;;10544750;27;20426;-65
2022/07/30 13:48:54;;;;;;;2.65;1.50;;;24.30;71.80;;;;;;10534113;27;20027;-66
2022/07/30 13:53:55;;;;;;;3.22;1.50;;;24.40;71.80;;;;;;10534652;27;20054;-65
2022/07/30 13:58:56;;;;;;;1.20;1.10;;;24.50;71.80;;;;;;10535350;27;20029;-65
2022/07/30 14:03:57;;;;;;;2.65;1.40;;;24.70;71.80;;;;;;10546507;27;20019;-66
2022/07/30 14:08:57;;;;;;;5.57;1.60;;;24.50;71.10;;;;;;10547935;27;20407;-65
2022/07/30 14:13:58;;;;;;;5.30;1.30;;;24.30;71.90;;;;;;10526547;27;20051;-65
2022/07/30 14:18:59;;;;;;;4.30;1.63;;;24.20;72.10;;;;;;10531168;27;20508;-64
2022/07/30 14:23:59;;;;;;;4.00;1.85;;;24.30;72.30;;;;;;10556097;27;20646;-65
2022/07/30 14:29:00;;;;;;;5.45;1.80;;;24.20;72.10;;;;;;10553218;27;20501;-66
2022/07/30 14:34:01;;;;;;;3.85;1.30;;;24.20;72.30;;;;;;10545644;27;20390;-66
2022/07/30 14:39:03;;;;;;;4.55;1.30;;;24.20;72.10;;;;;;10555080;27;20155;-65
2022/07/30 14:44:04;;;;;;;2.55;1.55;;;24.20;72.10;;;;;;10562876;27;20223;-65
2022/07/30 14:49:05;;;;;;;4.05;1.58;;;24.10;71.70;;;;;;10559536;27;20352;-65
2022/07/30 14:54:06;;;;;;;2.38;1.55;;;24.00;71.90;;;;;;10549010;27;20518;-66
2022/07/30 14:59:07;;;;;;;3.53;1.35;;;24.10;71.90;;;;;;10539099;27;20143;-65
2022/07/30 15:04:09;;;;;;;3.15;1.75;;;24.30;71.70;;;;;;10543570;27;20875;-65
2022/07/30 15:09:10;;;;;;;3.97;1.90;;;24.40;71.20;;;;;;10542084;27;20337;-66
2022/07/30 15:14:11;;;;;;;2.95;1.40;;;24.40;71.10;;;;;;10562022;27;20075;-66
2022/07/30 15:19:12;;;;;;;2.95;1.38;;;24.30;71.20;;;;;;10559537;27;20046;-66
2022/07/30 15:24:13;;;;;;;3.70;1.30;;;24.30;71.50;;;;;;10561134;27;20111;-66
2022/07/30 15:29:14;;;;;;;2.17;1.75;;;24.40;71.30;;;;;;10543838;27;20031;-65
2022/07/30 15:34:15;;;;;;;2.78;1.38;;;24.30;71.60;;;;;;10558735;27;20034;-66
2022/07/30 15:39:16;;;;;;;3.35;1.38;;;24.20;71.90;;;;;;10563171;27;20364;-66
2022/07/30 15:44:17;;;;;;;2.03;1.50;;;24.20;72.10;;;;;;10560618;27;20019;-65
2022/07/30 15:49:17;;;;;;;2.60;1.30;;;24.10;71.70;;;;;;10564921;27;20034;-66
2022/07/30 15:54:21;;;;;;;2.25;1.30;;;23.90;72.00;;;;;;10562742;27;20042;-65
2022/07/30 15:59:22;;;;;;;7.63;1.58;;;23.80;72.10;;;;;;10545414;27;20030;-65
2022/07/30 16:04:23;;;;;;;10.75;5.97;;;23.80;72.40;;;;;;10546665;27;20330;-64
2022/07/30 16:09:24;;;;;;;5.60;4.60;;;23.80;72.60;;;;;;10549252;27;20529;-66
2022/07/30 16:14:25;;;;;;;7.07;4.03;;;23.80;72.70;;;;;;10547858;27;20450;-66
2022/07/30 16:19:27;;;;;;;3.53;3.17;;;23.40;72.90;;;;;;10549172;27;20287;-66
2022/07/30 16:24:27;;;;;;;4.00;2.20;;;23.70;72.80;;;;;;10541742;27;20117;-66
2022/07/30 16:29:28;;;;;;;8.43;4.28;;;23.70;73.10;;;;;;10550665;27;20026;-66
2022/07/30 16:34:29;;;;;;;4.60;2.65;;;23.80;73.10;;;;;;10544735;27;20136;-66
2022/07/30 16:39:30;;;;;;;5.47;4.38;;;23.80;73.20;;;;;;10539895;27;20054;-66
2022/07/30 16:44:32;;;;;;;4.45;1.80;;;23.70;73.40;;;;;;10549162;27;20452;-64
2022/07/30 16:49:33;;;;;;;3.30;1.83;;;23.80;73.40;;;;;;10550314;27;20310;-67
2022/07/30 16:54:34;;;;;;;3.75;1.77;;;23.50;73.30;;;;;;10550426;27;20042;-66
2022/07/30 16:59:36;;;;;;;2.65;1.80;;;23.60;73.40;;;;;;10540669;27;20707;-69
2022/07/30 17:04:37;;;;;;;2.30;1.25;;;23.50;73.60;;;;;;10539425;27;20074;-65
2022/07/30 17:09:38;;;;;;;2.20;1.60;;;23.50;73.00;;;;;;10538559;27;20037;-65
2022/07/30 17:14:40;;;;;;;2.13;1.45;;;23.40;72.80;;;;;;10532579;27;20046;-65
2022/07/30 17:19:41;;;;;;;2.53;1.40;;;23.50;72.50;;;;;;10533338;27;20007;-65
2022/07/30 17:24:42;;;;;;;1.50;1.40;;;23.50;72.60;;;;;;10528304;27;20100;-65
2022/07/30 17:29:43;;;;;;;2.08;1.33;;;23.30;72.80;;;;;;10532744;27;20063;-64
2022/07/30 17:34:44;;;;;;;4.78;1.70;;;23.30;73.20;;;;;;10533669;27;20336;-64
2022/07/30 17:39:44;;;;;;;4.38;1.50;;;23.20;73.50;;;;;;10534304;27;20120;-65
2022/07/30 17:44:45;;;;;;;4.50;1.63;;;23.10;73.90;;;;;;10519807;27;20020;-65
2022/07/30 17:49:46;;;;;;;4.10;1.67;;;23.00;74.10;;;;;;10526905;27;20870;-65
2022/07/30 17:54:47;;;;;;;3.45;1.40;;;22.90;74.60;;;;;;10543572;27;20872;-59
2022/07/30 17:59:47;;;;;;;17.77;1.58;;;22.80;75.00;;;;;;10544110;27;20030;-61
2022/07/30 18:04:48;;;;;;;2.15;1.40;;;22.90;75.00;;;;;;10534064;27;20820;-61
2022/07/30 18:09:49;;;;;;;3.13;1.23;;;23.00;74.90;;;;;;10541056;27;20399;-61
2022/07/30 18:14:50;;;;;;;2.05;1.50;;;23.10;74.80;;;;;;10533746;27;20445;-60
2022/07/30 18:19:51;;;;;;;1.58;1.45;;;23.10;74.80;;;;;;10529627;27;20367;-60
2022/07/30 18:24:52;;;;;;;1.77;1.58;;;23.20;74.80;;;;;;10534536;27;20043;-61
2022/07/30 18:29:52;;;;;;;3.33;1.50;;;23.20;74.90;;;;;;10536936;27;20848;-60
2022/07/30 18:34:53;;;;;;;1.52;1.33;;;23.20;75.00;;;;;;10534141;27;20239;-60
2022/07/30 18:39:54;;;;;;;3.03;1.58;;;23.20;75.00;;;;;;10529490;27;20047;-59
2022/07/30 18:44:55;;;;;;;2.17;1.40;;;23.20;75.20;;;;;;10532576;27;20031;-62
2022/07/30 18:49:55;;;;;;;3.03;1.48;;;23.20;75.80;;;;;;10534722;27;20385;-60
2022/07/30 18:54:56;;;;;;;3.67;1.40;;;23.20;75.30;;;;;;10533720;27;20419;-60
2022/07/30 18:59:57;;;;;;;2.15;1.55;;;23.20;75.50;;;;;;10538031;27;20107;-61
2022/07/30 19:04:57;;;;;;;2.78;1.27;;;23.20;75.50;;;;;;10550735;27;20805;-59
2022/07/30 19:09:59;;;;;;;1.60;1.33;;;23.10;75.60;;;;;;10534146;27;20027;-62
2022/07/30 19:14:59;;;;;;;1.85;1.30;;;23.40;75.90;;;;;;10543569;27;20039;-64
2022/07/30 19:20:01;;;;;;;1.30;1.20;;;23.10;75.80;;;;;;10558876;27;20414;-63
2022/07/30 19:25:02;;;;;;;1.75;1.40;;;23.10;76.00;;;;;;10564122;27;20039;-63
2022/07/30 19:30:03;;;;;;;1.52;1.35;;;23.10;76.10;;;;;;10557797;27;20460;-65
2022/07/30 19:35:04;;;;;;;2.15;1.25;;;23.00;76.10;;;;;;10537906;27;20035;-64
2022/07/30 19:40:05;;;;;;;2.25;1.58;;;22.90;76.20;;;;;;10542302;27;20043;-63
2022/07/30 19:45:07;;;;;;;1.55;1.40;;;23.00;76.30;;;;;;10544296;27;20676;-63
2022/07/30 19:50:08;;;;;;;2.47;1.30;;;22.90;76.40;;;;;;10533857;27;20558;-63
2022/07/30 19:55:09;;;;;;;1.58;1.20;;;22.90;76.50;;;;;;10531024;27;20580;-64
2022/07/30 20:00:10;;;;;;;1.67;1.35;;;22.90;76.60;;;;;;10567892;27;20109;-63
2022/07/30 20:05:11;;;;;;;1.95;1.20;;;22.90;76.70;;;;;;10652691;27;20031;-64
2022/07/30 20:10:12;;;;;;;1.42;1.23;;;22.90;76.80;;;;;;10638680;27;20015;-64
2022/07/30 20:15:13;;;;;;;2.13;1.20;;;22.80;76.90;;;;;;10635814;27;20038;-64
2022/07/30 20:20:14;;;;;;;1.92;1.40;;;22.80;76.90;;;;;;10638491;27;20062;-64
2022/07/30 20:25:14;;;;;;;1.30;1.20;;;22.80;77.00;;;;;;10644239;27;20034;-64
2022/07/30 20:30:16;;;;;;;1.33;1.23;;;22.80;77.10;;;;;;10648490;27;20484;-64
2022/07/30 20:35:17;;;;;;;2.25;1.42;;;22.70;77.10;;;;;;10640217;27;20035;-63
2022/07/30 20:40:17;;;;;;;2.95;1.25;;;22.70;77.20;;;;;;10631850;27;20050;-64
2022/07/30 20:45:18;;;;;;;2.88;1.33;;;22.70;77.20;;;;;;10638587;27;20030;-64
2022/07/30 20:50:19;;;;;;;2.03;1.38;;;22.70;77.40;;;;;;10641895;27;20015;-64
2022/07/30 20:55:20;;;;;;;2.13;1.50;;;22.60;77.40;;;;;;10636390;27;20045;-63
2022/07/30 21:00:21;;;;;;;2.38;1.35;;;22.60;77.40;;;;;;10636771;27;20019;-63
2022/07/30 21:05:22;;;;;;;2.00;1.48;;;22.60;77.50;;;;;;10630793;27;20023;-64
2022/07/30 21:10:23;;;;;;;1.65;1.55;;;22.60;77.60;;;;;;10621692;27;20043;-61
2022/07/30 21:15:24;;;;;;;2.53;1.50;;;22.60;77.70;;;;;;10634726;27;20038;-61
2022/07/30 21:20:24;;;;;;;4.20;1.50;;;22.50;77.70;;;;;;10647183;27;20014;-61
2022/07/30 21:25:25;;;;;;;1.63;1.52;;;22.50;77.80;;;;;;10643283;27;20132;-61
2022/07/30 21:30:26;;;;;;;3.45;1.70;;;22.50;77.80;;;;;;10641340;27;20079;-62
2022/07/30 21:35:27;;;;;;;1.88;1.60;;;22.50;77.90;;;;;;10643669;27;20038;-61
2022/07/30 21:40:28;;;;;;;1.90;1.40;;;22.50;78.00;;;;;;10629963;27;20043;-61
2022/07/30 21:45:28;;;;;;;2.50;1.80;;;22.40;78.00;;;;;;10626003;27;20027;-62
2022/07/30 21:50:29;;;;;;;1.65;1.50;;;22.40;78.00;;;;;;10629305;27;20023;-61
2022/07/30 21:55:30;;;;;;;3.15;1.70;;;22.40;78.10;;;;;;10644521;27;20155;-62
2022/07/30 22:01:03;;;;;;;1.98;1.73;;;22.40;78.10;;;;;;10636352;27;20079;-61
2022/07/30 22:06:04;;;;;;;2.58;1.85;;;22.40;78.20;;;;;;10630929;27;20022;-61
2022/07/30 22:11:04;;;;;;;2.60;1.77;;;22.30;78.20;;;;;;10619081;27;20397;-62
2022/07/30 22:16:05;;;;;;;2.10;1.60;;;22.30;78.20;;;;;;10630519;27;20038;-62
2022/07/30 22:21:06;;;;;;;2.90;2.08;;;22.30;78.20;;;;;;10634316;27;20042;-61
2022/07/30 22:26:07;;;;;;;2.10;1.60;;;22.30;78.20;;;;;;10627603;27;20039;-61
2022/07/30 22:31:08;;;;;;;2.17;1.60;;;22.30;78.30;;;;;;10629891;27;20501;-61
2022/07/30 22:36:08;;;;;;;2.85;1.85;;;22.20;78.20;;;;;;10620158;27;20142;-62
2022/07/30 22:41:10;;;;;;;2.35;1.40;;;22.20;78.30;;;;;;10636620;27;20050;-62
2022/07/30 22:46:11;;;;;;;2.72;2.00;;;22.20;78.30;;;;;;10630413;27;20023;-62
2022/07/30 22:51:12;;;;;;;3.15;1.50;;;22.20;78.30;;;;;;10630323;27;20024;-62
2022/07/30 22:56:13;;;;;;;2.97;1.90;;;22.20;78.30;;;;;;10651450;27;20091;-62
2022/07/30 23:01:14;;;;;;;2.00;1.63;;;22.10;78.30;;;;;;10640212;27;20100;-61
2022/07/30 23:06:14;;;;;;;1.80;1.70;;;22.10;78.40;;;;;;10641462;27;20027;-61
2022/07/30 23:11:15;;;;;;;2.17;1.73;;;22.10;78.30;;;;;;10638975;27;20069;-61
2022/07/30 23:16:16;;;;;;;1.90;1.50;;;22.10;78.40;;;;;;10635502;27;20018;-61
2022/07/30 23:21:17;;;;;;;1.55;1.40;;;22.00;78.30;;;;;;10648186;27;20079;-61
2022/07/30 23:26:18;;;;;;;1.63;1.40;;;22.00;78.30;;;;;;10632330;27;20023;-61
2022/07/30 23:31:18;;;;;;;1.95;1.65;;;22.00;78.30;;;;;;10632581;27;20050;-61
2022/07/30 23:36:19;;;;;;;2.10;1.45;;;22.00;78.30;;;;;;10646623;27;20030;-61
2022/07/30 23:41:19;;;;;;;1.95;1.60;;;22.00;78.40;;;;;;10653893;27;20149;-61
2022/07/30 23:46:20;;;;;;;3.33;1.98;;;21.90;78.40;;;;;;10640072;27;20030;-62
2022/07/30 23:51:21;;;;;;;3.22;1.90;;;21.90;78.40;;;;;;10625081;27;20466;-61
2022/07/30 23:56:21;;;;;;;3.28;1.70;;;21.90;78.40;;;;;;10641786;27;20027;-62
